Orcas, WA (98280)

10:03 AM PST on December 09, 2016 (GMT -0800)
Cayou Valley, Deer Harbor | | Change Station

Elev 30 ft 48.63 °N, 123.00 °W | Updated 47 seconds ago

Overcast
Overcast
33.0 °F
Feels Like 33 °F
N
0.0
Wind Variable Wind from West

Today
High -- | Low -- °F
--% Chance of Precip.
Yesterday
High -- | Low -- °F
Precip. -- in
Pressure 29.98 in
Visibility 10.0 miles
Clouds Overcast 900 ft
Windchill 33 °F
Dew Point 32 °F
Humidity 96%
Rainfall 0.00 in
Snow Depth Not available.
7:52 AM 4:16 PM
Waxing Gibbous, 76% visible
METAR KFHR 091753Z AUTO 09007KT 10SM OVC009 02/01 A2997 RMK AO2 RAB02E03B29E48UPB03E11SNB11E29 SLP151 P0000 60000 T00220006 10022 20006 50004
Pressure 29.98 in
Visibility 10.0 miles
Clouds Overcast 900 ft
Windchill 33 °F
Dew Point 32 °F
Humidity 96%
Rainfall 0.00 in
Snow Depth Not available.
7:52 AM 4:16 PM
Waxing Gibbous, 76% visible
METAR KFHR 091753Z AUTO 09007KT 10SM OVC009 02/01 A2997 RMK AO2 RAB02E03B29E48UPB03E11SNB11E29 SLP151 P0000 60000 T00220006 10022 20006 50004

10-Day Weather Forecast

Almanac

Astronomy

Dec. 09, 2016 Rise Set
Actual Time
Civil Twilight
Nautical Twilight
Astronomical Twilight
Moon
Length of Visible Light
Length of Day
Tomorrow will be .
, % of the Moon is Illuminated

Today's Extremes

State Highs State Lows

Community

WunderPhotos

Upload Photos

1,956,499 photos uploaded!

WunderBlog® & News

Nearby

Air Quality

  Air Quality AQ Index Pollutant
Not available.

Snow Depth

Station Depth Elevation

Earthquake Activity

City Distance Mag. Time & Date
Minimum magnitude displayed is 2.5.

Coastal Water Temperatures

Place Temperature

Stations

Nearby Weather Stations

Station Location Temp. Windchill Dew Point Humidity Wind Precip. Elev Updated Type
                   

Watches & Warnings

There are currently no watches in effect.